sensor_id;sensor_type;location;lat;lon;timestamp;P1;durP1;ratioP1;P2;durP2;ratioP2
48853;SDS011;34673;52.808;17.856;2023-02-28T00:01:12;34.70;;;12.85;;
48853;SDS011;34673;52.808;17.856;2023-02-28T00:03:41;30.58;;;11.40;;
48853;SDS011;34673;52.808;17.856;2023-02-28T00:06:08;29.00;;;11.00;;
48853;SDS011;34673;52.808;17.856;2023-02-28T00:08:36;28.90;;;10.73;;
48853;SDS011;34673;52.808;17.856;2023-02-28T00:11:11;30.92;;;11.85;;
48853;SDS011;34673;52.808;17.856;2023-02-28T00:13:41;33.67;;;12.27;;
48853;SDS011;34673;52.808;17.856;2023-02-28T00:16:13;31.00;;;12.52;;
48853;SDS011;34673;52.808;17.856;2023-02-28T00:18:43;32.50;;;12.13;;
48853;SDS011;34673;52.808;17.856;2023-02-28T00:21:11;29.10;;;12.38;;
48853;SDS011;34673;52.808;17.856;2023-02-28T00:23:38;33.58;;;12.25;;
48853;SDS011;34673;52.808;17.856;2023-02-28T00:26:05;30.25;;;12.95;;
48853;SDS011;34673;52.808;17.856;2023-02-28T00:28:32;33.22;;;12.50;;
48853;SDS011;34673;52.808;17.856;2023-02-28T00:30:59;30.48;;;12.73;;
48853;SDS011;34673;52.808;17.856;2023-02-28T00:33:28;33.55;;;14.02;;
48853;SDS011;34673;52.808;17.856;2023-02-28T00:36:05;36.15;;;14.68;;
48853;SDS011;34673;52.808;17.856;2023-02-28T00:38:35;36.42;;;14.05;;
48853;SDS011;34673;52.808;17.856;2023-02-28T00:41:03;32.45;;;13.25;;
48853;SDS011;34673;52.808;17.856;2023-02-28T00:43:35;29.05;;;12.07;;
48853;SDS011;34673;52.808;17.856;2023-02-28T00:46:04;29.75;;;12.50;;
48853;SDS011;34673;52.808;17.856;2023-02-28T00:48:31;31.40;;;12.77;;
48853;SDS011;34673;52.808;17.856;2023-02-28T00:50:59;33.55;;;12.52;;
48853;SDS011;34673;52.808;17.856;2023-02-28T00:53:26;31.83;;;12.52;;
48853;SDS011;34673;52.808;17.856;2023-02-28T00:55:56;33.55;;;13.73;;
48853;SDS011;34673;52.808;17.856;2023-02-28T00:58:25;35.67;;;13.95;;
48853;SDS011;34673;52.808;17.856;2023-02-28T01:00:52;30.25;;;12.98;;
48853;SDS011;34673;52.808;17.856;2023-02-28T01:03:20;40.05;;;14.75;;
48853;SDS011;34673;52.808;17.856;2023-02-28T01:05:49;34.33;;;14.20;;
48853;SDS011;34673;52.808;17.856;2023-02-28T01:08:16;32.60;;;14.27;;
48853;SDS011;34673;52.808;17.856;2023-02-28T01:10:44;33.38;;;13.68;;
48853;SDS011;34673;52.808;17.856;2023-02-28T01:13:11;34.45;;;14.70;;
48853;SDS011;34673;52.808;17.856;2023-02-28T01:15:39;33.20;;;13.30;;
48853;SDS011;34673;52.808;17.856;2023-02-28T01:18:11;31.35;;;13.45;;
48853;SDS011;34673;52.808;17.856;2023-02-28T01:20:38;32.88;;;13.30;;
48853;SDS011;34673;52.808;17.856;2023-02-28T01:23:05;30.38;;;13.13;;
48853;SDS011;34673;52.808;17.856;2023-02-28T01:25:36;29.60;;;12.57;;
48853;SDS011;34673;52.808;17.856;2023-02-28T01:28:04;31.05;;;13.32;;
48853;SDS011;34673;52.808;17.856;2023-02-28T01:30:33;31.33;;;12.80;;
48853;SDS011;34673;52.808;17.856;2023-02-28T01:33:00;35.30;;;14.18;;
48853;SDS011;34673;52.808;17.856;2023-02-28T01:35:27;33.03;;;14.02;;
48853;SDS011;34673;52.808;17.856;2023-02-28T01:37:55;30.35;;;12.90;;
48853;SDS011;34673;52.808;17.856;2023-02-28T01:40:30;36.10;;;12.98;;
48853;SDS011;34673;52.808;17.856;2023-02-28T01:42:57;32.00;;;12.57;;
48853;SDS011;34673;52.808;17.856;2023-02-28T01:45:31;31.45;;;12.77;;
48853;SDS011;34673;52.808;17.856;2023-02-28T01:48:02;34.30;;;14.25;;
48853;SDS011;34673;52.808;17.856;2023-02-28T01:50:34;33.08;;;12.32;;
48853;SDS011;34673;52.808;17.856;2023-02-28T01:53:06;29.40;;;12.85;;
48853;SDS011;34673;52.808;17.856;2023-02-28T01:55:37;30.80;;;13.35;;
48853;SDS011;34673;52.808;17.856;2023-02-28T01:58:06;31.63;;;13.15;;
48853;SDS011;34673;52.808;17.856;2023-02-28T02:00:35;30.23;;;12.40;;
48853;SDS011;34673;52.808;17.856;2023-02-28T02:03:05;36.78;;;13.90;;
48853;SDS011;34673;52.808;17.856;2023-02-28T02:05:38;39.40;;;15.40;;
48853;SDS011;34673;52.808;17.856;2023-02-28T02:08:11;32.88;;;13.73;;
48853;SDS011;34673;52.808;17.856;2023-02-28T02:10:59;33.42;;;12.85;;
48853;SDS011;34673;52.808;17.856;2023-02-28T02:16:22;32.75;;;13.88;;
48853;SDS011;34673;52.808;17.856;2023-02-28T02:25:23;31.73;;;12.80;;
48853;SDS011;34673;52.808;17.856;2023-02-28T02:36:37;33.15;;;13.25;;
48853;SDS011;34673;52.808;17.856;2023-02-28T02:39:12;29.02;;;12.77;;
48853;SDS011;34673;52.808;17.856;2023-02-28T02:41:45;30.77;;;12.80;;
48853;SDS011;34673;52.808;17.856;2023-02-28T02:45:06;30.52;;;13.75;;
48853;SDS011;34673;52.808;17.856;2023-02-28T02:47:15;34.88;;;13.25;;
48853;SDS011;34673;52.808;17.856;2023-02-28T02:49:55;31.08;;;12.48;;
48853;SDS011;34673;52.808;17.856;2023-02-28T02:52:31;29.95;;;12.60;;
48853;SDS011;34673;52.808;17.856;2023-02-28T02:55:21;32.30;;;12.50;;
48853;SDS011;34673;52.808;17.856;2023-02-28T02:57:58;32.53;;;13.30;;
48853;SDS011;34673;52.808;17.856;2023-02-28T03:00:33;29.73;;;12.30;;
48853;SDS011;34673;52.808;17.856;2023-02-28T03:03:04;31.80;;;12.98;;
48853;SDS011;34673;52.808;17.856;2023-02-28T03:05:45;34.80;;;13.82;;
48853;SDS011;34673;52.808;17.856;2023-02-28T03:08:15;37.10;;;13.48;;
48853;SDS011;34673;52.808;17.856;2023-02-28T03:10:43;31.92;;;13.65;;
48853;SDS011;34673;52.808;17.856;2023-02-28T03:21:43;38.42;;;14.57;;
48853;SDS011;34673;52.808;17.856;2023-02-28T03:24:19;33.00;;;14.50;;
48853;SDS011;34673;52.808;17.856;2023-02-28T03:27:04;35.40;;;14.52;;
48853;SDS011;34673;52.808;17.856;2023-02-28T03:29:46;35.88;;;15.13;;
48853;SDS011;34673;52.808;17.856;2023-02-28T03:32:24;42.08;;;14.00;;
48853;SDS011;34673;52.808;17.856;2023-02-28T03:35:06;34.45;;;13.93;;
48853;SDS011;34673;52.808;17.856;2023-02-28T03:37:35;38.22;;;14.57;;
48853;SDS011;34673;52.808;17.856;2023-02-28T03:40:09;36.55;;;14.55;;
48853;SDS011;34673;52.808;17.856;2023-02-28T03:42:41;32.90;;;13.25;;
48853;SDS011;34673;52.808;17.856;2023-02-28T03:45:13;34.83;;;14.68;;
48853;SDS011;34673;52.808;17.856;2023-02-28T03:47:48;34.95;;;14.70;;
48853;SDS011;34673;52.808;17.856;2023-02-28T03:50:21;33.55;;;14.10;;
48853;SDS011;34673;52.808;17.856;2023-02-28T03:52:54;33.83;;;14.15;;
48853;SDS011;34673;52.808;17.856;2023-02-28T03:55:34;50.13;;;22.55;;
48853;SDS011;34673;52.808;17.856;2023-02-28T03:58:11;38.58;;;15.05;;
48853;SDS011;34673;52.808;17.856;2023-02-28T04:00:49;35.97;;;15.00;;
48853;SDS011;34673;52.808;17.856;2023-02-28T04:03:22;35.40;;;15.18;;
48853;SDS011;34673;52.808;17.856;2023-02-28T04:05:53;37.80;;;14.30;;
48853;SDS011;34673;52.808;17.856;2023-02-28T04:08:22;34.22;;;14.02;;
48853;SDS011;34673;52.808;17.856;2023-02-28T04:10:51;37.03;;;13.98;;
48853;SDS011;34673;52.808;17.856;2023-02-28T04:13:24;36.05;;;14.20;;
48853;SDS011;34673;52.808;17.856;2023-02-28T04:15:51;34.40;;;13.80;;
48853;SDS011;34673;52.808;17.856;2023-02-28T04:18:18;36.13;;;15.05;;
48853;SDS011;34673;52.808;17.856;2023-02-28T04:20:45;37.70;;;14.93;;
48853;SDS011;34673;52.808;17.856;2023-02-28T04:23:13;40.92;;;15.20;;
48853;SDS011;34673;52.808;17.856;2023-02-28T04:25:40;35.20;;;15.32;;
48853;SDS011;34673;52.808;17.856;2023-02-28T04:28:07;36.17;;;15.38;;
48853;SDS011;34673;52.808;17.856;2023-02-28T04:30:34;36.35;;;15.73;;
48853;SDS011;34673;52.808;17.856;2023-02-28T04:33:01;38.45;;;15.60;;
48853;SDS011;34673;52.808;17.856;2023-02-28T04:35:28;36.38;;;15.30;;
48853;SDS011;34673;52.808;17.856;2023-02-28T04:37:56;36.38;;;14.68;;
48853;SDS011;34673;52.808;17.856;2023-02-28T04:40:23;36.10;;;15.85;;
48853;SDS011;34673;52.808;17.856;2023-02-28T04:42:50;31.85;;;15.15;;
48853;SDS011;34673;52.808;17.856;2023-02-28T04:45:17;31.38;;;13.90;;
48853;SDS011;34673;52.808;17.856;2023-02-28T04:47:44;37.40;;;15.68;;
48853;SDS011;34673;52.808;17.856;2023-02-28T04:50:11;41.38;;;16.80;;
48853;SDS011;34673;52.808;17.856;2023-02-28T04:52:39;36.47;;;16.17;;
48853;SDS011;34673;52.808;17.856;2023-02-28T04:55:06;40.63;;;13.50;;
48853;SDS011;34673;52.808;17.856;2023-02-28T04:57:33;35.15;;;14.90;;
48853;SDS011;34673;52.808;17.856;2023-02-28T05:00:00;34.10;;;14.43;;
48853;SDS011;34673;52.808;17.856;2023-02-28T05:02:28;42.17;;;16.25;;
48853;SDS011;34673;52.808;17.856;2023-02-28T05:04:55;35.50;;;15.88;;
48853;SDS011;34673;52.808;17.856;2023-02-28T05:07:22;36.63;;;15.82;;
48853;SDS011;34673;52.808;17.856;2023-02-28T05:09:49;37.17;;;15.18;;
48853;SDS011;34673;52.808;17.856;2023-02-28T05:12:16;35.35;;;15.18;;
48853;SDS011;34673;52.808;17.856;2023-02-28T05:14:43;35.75;;;15.82;;
48853;SDS011;34673;52.808;17.856;2023-02-28T05:17:10;34.50;;;16.40;;
48853;SDS011;34673;52.808;17.856;2023-02-28T05:19:37;37.22;;;15.70;;
48853;SDS011;34673;52.808;17.856;2023-02-28T05:22:04;36.15;;;15.73;;
48853;SDS011;34673;52.808;17.856;2023-02-28T05:24:39;37.25;;;16.42;;
48853;SDS011;34673;52.808;17.856;2023-02-28T05:27:07;38.42;;;15.80;;
48853;SDS011;34673;52.808;17.856;2023-02-28T05:29:34;38.65;;;16.75;;
48853;SDS011;34673;52.808;17.856;2023-02-28T05:32:09;41.85;;;17.48;;
48853;SDS011;34673;52.808;17.856;2023-02-28T05:34:38;42.80;;;18.48;;
48853;SDS011;34673;52.808;17.856;2023-02-28T05:37:07;38.85;;;17.17;;
48853;SDS011;34673;52.808;17.856;2023-02-28T05:39:39;40.25;;;17.67;;
48853;SDS011;34673;52.808;17.856;2023-02-28T05:42:06;44.83;;;17.88;;
48853;SDS011;34673;52.808;17.856;2023-02-28T05:44:33;42.75;;;17.90;;
48853;SDS011;34673;52.808;17.856;2023-02-28T05:47:00;45.05;;;18.85;;
48853;SDS011;34673;52.808;17.856;2023-02-28T05:49:28;44.03;;;18.88;;
48853;SDS011;34673;52.808;17.856;2023-02-28T05:51:55;41.92;;;18.55;;
48853;SDS011;34673;52.808;17.856;2023-02-28T05:54:22;41.88;;;17.48;;
48853;SDS011;34673;52.808;17.856;2023-02-28T05:56:49;47.55;;;18.63;;
48853;SDS011;34673;52.808;17.856;2023-02-28T05:59:16;43.45;;;20.10;;
48853;SDS011;34673;52.808;17.856;2023-02-28T06:02:13;43.55;;;18.35;;
48853;SDS011;34673;52.808;17.856;2023-02-28T06:04:42;41.50;;;18.27;;
48853;SDS011;34673;52.808;17.856;2023-02-28T06:07:10;41.92;;;18.55;;
48853;SDS011;34673;52.808;17.856;2023-02-28T06:09:37;41.75;;;19.00;;
48853;SDS011;34673;52.808;17.856;2023-02-28T06:12:04;40.00;;;18.52;;
48853;SDS011;34673;52.808;17.856;2023-02-28T06:14:33;50.70;;;21.00;;
48853;SDS011;34673;52.808;17.856;2023-02-28T06:17:01;50.65;;;20.92;;
48853;SDS011;34673;52.808;17.856;2023-02-28T06:19:29;47.75;;;20.65;;
48853;SDS011;34673;52.808;17.856;2023-02-28T06:21:57;45.88;;;21.55;;
48853;SDS011;34673;52.808;17.856;2023-02-28T06:24:25;48.55;;;23.23;;
48853;SDS011;34673;52.808;17.856;2023-02-28T06:26:57;46.90;;;20.10;;
48853;SDS011;34673;52.808;17.856;2023-02-28T06:29:25;46.95;;;21.20;;
48853;SDS011;34673;52.808;17.856;2023-02-28T06:31:52;47.50;;;21.73;;
48853;SDS011;34673;52.808;17.856;2023-02-28T06:34:20;49.13;;;21.58;;
48853;SDS011;34673;52.808;17.856;2023-02-28T06:36:47;47.30;;;21.75;;
48853;SDS011;34673;52.808;17.856;2023-02-28T06:39:18;49.53;;;22.23;;
48853;SDS011;34673;52.808;17.856;2023-02-28T06:41:45;52.67;;;20.70;;
48853;SDS011;34673;52.808;17.856;2023-02-28T06:44:21;44.67;;;21.15;;
48853;SDS011;34673;52.808;17.856;2023-02-28T06:46:49;48.13;;;21.95;;
48853;SDS011;34673;52.808;17.856;2023-02-28T06:49:17;52.55;;;21.95;;
48853;SDS011;34673;52.808;17.856;2023-02-28T06:51:44;49.67;;;21.45;;
48853;SDS011;34673;52.808;17.856;2023-02-28T06:54:11;51.08;;;21.98;;
48853;SDS011;34673;52.808;17.856;2023-02-28T06:56:39;48.90;;;22.30;;
48853;SDS011;34673;52.808;17.856;2023-02-28T06:59:06;53.42;;;21.33;;
48853;SDS011;34673;52.808;17.856;2023-02-28T07:01:34;49.00;;;20.25;;
48853;SDS011;34673;52.808;17.856;2023-02-28T07:04:01;54.92;;;27.08;;
48853;SDS011;34673;52.808;17.856;2023-02-28T07:06:29;64.25;;;32.65;;
48853;SDS011;34673;52.808;17.856;2023-02-28T07:08:57;60.22;;;27.52;;
48853;SDS011;34673;52.808;17.856;2023-02-28T07:11:25;58.30;;;28.50;;
48853;SDS011;34673;52.808;17.856;2023-02-28T07:13:54;54.03;;;25.88;;
48853;SDS011;34673;52.808;17.856;2023-02-28T07:16:23;50.72;;;24.88;;
48853;SDS011;34673;52.808;17.856;2023-02-28T07:18:54;48.40;;;23.38;;
48853;SDS011;34673;52.808;17.856;2023-02-28T07:21:22;53.55;;;24.95;;
48853;SDS011;34673;52.808;17.856;2023-02-28T07:23:49;48.88;;;23.02;;
48853;SDS011;34673;52.808;17.856;2023-02-28T07:26:17;55.20;;;24.80;;
48853;SDS011;34673;52.808;17.856;2023-02-28T07:28:46;55.60;;;23.70;;
48853;SDS011;34673;52.808;17.856;2023-02-28T07:31:14;44.95;;;21.17;;
48853;SDS011;34673;52.808;17.856;2023-02-28T07:33:42;46.92;;;21.13;;
48853;SDS011;34673;52.808;17.856;2023-02-28T07:36:11;41.22;;;19.92;;
48853;SDS011;34673;52.808;17.856;2023-02-28T07:38:42;51.40;;;21.20;;
48853;SDS011;34673;52.808;17.856;2023-02-28T07:41:14;44.25;;;20.85;;
48853;SDS011;34673;52.808;17.856;2023-02-28T07:43:43;41.88;;;20.65;;
48853;SDS011;34673;52.808;17.856;2023-02-28T07:46:12;46.42;;;20.75;;
48853;SDS011;34673;52.808;17.856;2023-02-28T07:48:44;45.13;;;20.83;;
48853;SDS011;34673;52.808;17.856;2023-02-28T07:51:11;46.03;;;19.63;;
48853;SDS011;34673;52.808;17.856;2023-02-28T07:53:39;43.58;;;20.05;;
48853;SDS011;34673;52.808;17.856;2023-02-28T07:56:06;46.00;;;19.75;;
48853;SDS011;34673;52.808;17.856;2023-02-28T07:58:33;45.13;;;19.75;;
48853;SDS011;34673;52.808;17.856;2023-02-28T08:01:04;44.13;;;19.20;;
48853;SDS011;34673;52.808;17.856;2023-02-28T08:03:36;44.78;;;19.85;;
48853;SDS011;34673;52.808;17.856;2023-02-28T08:06:05;41.78;;;19.52;;
48853;SDS011;34673;52.808;17.856;2023-02-28T08:08:33;44.90;;;19.63;;
48853;SDS011;34673;52.808;17.856;2023-02-28T08:11:01;42.88;;;19.63;;
48853;SDS011;34673;52.808;17.856;2023-02-28T08:13:30;49.30;;;19.50;;
48853;SDS011;34673;52.808;17.856;2023-02-28T08:15:57;43.08;;;20.38;;
48853;SDS011;34673;52.808;17.856;2023-02-28T08:18:25;45.47;;;21.83;;
48853;SDS011;34673;52.808;17.856;2023-02-28T08:20:52;48.20;;;20.75;;
48853;SDS011;34673;52.808;17.856;2023-02-28T08:23:19;53.83;;;24.23;;
48853;SDS011;34673;52.808;17.856;2023-02-28T08:25:52;51.95;;;21.98;;
48853;SDS011;34673;52.808;17.856;2023-02-28T08:28:21;40.97;;;18.83;;
48853;SDS011;34673;52.808;17.856;2023-02-28T08:30:52;38.72;;;17.98;;
48853;SDS011;34673;52.808;17.856;2023-02-28T08:33:20;37.33;;;17.17;;
48853;SDS011;34673;52.808;17.856;2023-02-28T08:35:48;36.63;;;17.05;;
48853;SDS011;34673;52.808;17.856;2023-02-28T08:38:15;41.08;;;18.50;;
48853;SDS011;34673;52.808;17.856;2023-02-28T08:40:42;38.03;;;17.30;;
48853;SDS011;34673;52.808;17.856;2023-02-28T08:43:09;33.15;;;16.27;;
48853;SDS011;34673;52.808;17.856;2023-02-28T08:45:37;34.75;;;15.77;;
48853;SDS011;34673;52.808;17.856;2023-02-28T08:48:04;36.47;;;16.40;;
48853;SDS011;34673;52.808;17.856;2023-02-28T08:50:31;35.15;;;16.67;;
48853;SDS011;34673;52.808;17.856;2023-02-28T08:52:59;31.70;;;14.95;;
48853;SDS011;34673;52.808;17.856;2023-02-28T08:55:26;35.17;;;15.55;;
48853;SDS011;34673;52.808;17.856;2023-02-28T08:57:53;33.08;;;14.75;;
48853;SDS011;34673;52.808;17.856;2023-02-28T09:00:21;29.67;;;14.40;;
48853;SDS011;34673;52.808;17.856;2023-02-28T09:02:49;30.30;;;15.07;;
48853;SDS011;34673;52.808;17.856;2023-02-28T09:05:16;31.00;;;16.10;;
48853;SDS011;34673;52.808;17.856;2023-02-28T09:07:43;34.80;;;15.52;;
48853;SDS011;34673;52.808;17.856;2023-02-28T09:10:10;36.80;;;16.38;;
48853;SDS011;34673;52.808;17.856;2023-02-28T09:12:37;32.58;;;15.88;;
48853;SDS011;34673;52.808;17.856;2023-02-28T09:15:05;30.75;;;14.52;;
48853;SDS011;34673;52.808;17.856;2023-02-28T09:17:32;29.05;;;14.32;;
48853;SDS011;34673;52.808;17.856;2023-02-28T09:20:00;31.30;;;14.50;;
48853;SDS011;34673;52.808;17.856;2023-02-28T09:22:27;31.13;;;15.02;;
48853;SDS011;34673;52.808;17.856;2023-02-28T09:24:54;26.40;;;12.82;;
48853;SDS011;34673;52.808;17.856;2023-02-28T09:27:21;32.10;;;14.80;;
48853;SDS011;34673;52.808;17.856;2023-02-28T09:29:48;32.42;;;13.32;;
48853;SDS011;34673;52.808;17.856;2023-02-28T09:32:16;33.17;;;13.43;;
48853;SDS011;34673;52.808;17.856;2023-02-28T09:34:44;25.10;;;12.30;;
48853;SDS011;34673;52.808;17.856;2023-02-28T09:37:11;24.25;;;11.20;;
48853;SDS011;34673;52.808;17.856;2023-02-28T09:39:39;23.23;;;12.18;;
48853;SDS011;34673;52.808;17.856;2023-02-28T09:42:06;22.33;;;10.73;;
48853;SDS011;34673;52.808;17.856;2023-02-28T09:44:45;24.63;;;11.13;;
48853;SDS011;34673;52.808;17.856;2023-02-28T09:47:17;23.80;;;11.07;;
48853;SDS011;34673;52.808;17.856;2023-02-28T09:49:53;23.65;;;10.73;;
48853;SDS011;34673;52.808;17.856;2023-02-28T09:52:24;21.67;;;10.30;;
48853;SDS011;34673;52.808;17.856;2023-02-28T09:55:01;18.60;;;8.10;;
48853;SDS011;34673;52.808;17.856;2023-02-28T09:57:49;19.98;;;8.30;;
48853;SDS011;34673;52.808;17.856;2023-02-28T10:00:22;18.42;;;8.80;;
48853;SDS011;34673;52.808;17.856;2023-02-28T10:06:05;19.88;;;7.70;;
48853;SDS011;34673;52.808;17.856;2023-02-28T10:08:47;18.15;;;7.85;;
48853;SDS011;34673;52.808;17.856;2023-02-28T10:11:35;16.83;;;7.85;;
48853;SDS011;34673;52.808;17.856;2023-02-28T10:14:22;10.65;;;5.15;;
48853;SDS011;34673;52.808;17.856;2023-02-28T10:17:02;14.75;;;7.30;;
48853;SDS011;34673;52.808;17.856;2023-02-28T10:24:42;17.20;;;8.55;;
48853;SDS011;34673;52.808;17.856;2023-02-28T10:27:24;16.17;;;8.10;;
48853;SDS011;34673;52.808;17.856;2023-02-28T10:29:56;18.27;;;8.05;;
48853;SDS011;34673;52.808;17.856;2023-02-28T10:32:27;23.73;;;8.90;;
48853;SDS011;34673;52.808;17.856;2023-02-28T10:35:10;18.50;;;8.77;;
48853;SDS011;34673;52.808;17.856;2023-02-28T10:37:45;19.00;;;7.82;;
48853;SDS011;34673;52.808;17.856;2023-02-28T10:43:00;19.73;;;8.23;;
48853;SDS011;34673;52.808;17.856;2023-02-28T10:45:51;20.17;;;9.07;;
48853;SDS011;34673;52.808;17.856;2023-02-28T11:03:59;18.05;;;7.55;;
48853;SDS011;34673;52.808;17.856;2023-02-28T11:06:30;15.15;;;7.97;;
48853;SDS011;34673;52.808;17.856;2023-02-28T11:08:59;20.55;;;8.40;;
48853;SDS011;34673;52.808;17.856;2023-02-28T11:11:41;18.42;;;7.65;;
48853;SDS011;34673;52.808;17.856;2023-02-28T11:14:20;14.93;;;6.97;;
48853;SDS011;34673;52.808;17.856;2023-02-28T11:16:50;15.15;;;6.75;;
48853;SDS011;34673;52.808;17.856;2023-02-28T11:19:20;16.55;;;8.15;;
48853;SDS011;34673;52.808;17.856;2023-02-28T11:21:56;17.35;;;8.55;;
48853;SDS011;34673;52.808;17.856;2023-02-28T11:24:28;18.90;;;8.35;;
48853;SDS011;34673;52.808;17.856;2023-02-28T11:26:58;20.85;;;8.63;;
48853;SDS011;34673;52.808;17.856;2023-02-28T11:29:26;19.38;;;8.77;;
48853;SDS011;34673;52.808;17.856;2023-02-28T11:32:08;16.55;;;8.27;;
48853;SDS011;34673;52.808;17.856;2023-02-28T11:34:40;17.00;;;7.88;;
48853;SDS011;34673;52.808;17.856;2023-02-28T11:37:13;18.50;;;7.90;;
48853;SDS011;34673;52.808;17.856;2023-02-28T11:39:42;18.45;;;8.20;;
48853;SDS011;34673;52.808;17.856;2023-02-28T11:45:12;14.75;;;7.00;;
48853;SDS011;34673;52.808;17.856;2023-02-28T11:47:53;15.63;;;6.50;;
48853;SDS011;34673;52.808;17.856;2023-02-28T11:56:16;13.50;;;5.75;;
48853;SDS011;34673;52.808;17.856;2023-02-28T12:06:57;14.70;;;5.93;;
48853;SDS011;34673;52.808;17.856;2023-02-28T12:15:45;14.88;;;6.72;;
48853;SDS011;34673;52.808;17.856;2023-02-28T12:24:18;12.65;;;6.07;;
48853;SDS011;34673;52.808;17.856;2023-02-28T12:26:57;10.65;;;5.45;;
48853;SDS011;34673;52.808;17.856;2023-02-28T12:29:33;10.07;;;4.60;;
48853;SDS011;34673;52.808;17.856;2023-02-28T12:32:26;11.25;;;5.28;;
48853;SDS011;34673;52.808;17.856;2023-02-28T12:35:01;20.67;;;5.57;;
48853;SDS011;34673;52.808;17.856;2023-02-28T12:37:37;10.90;;;5.47;;
48853;SDS011;34673;52.808;17.856;2023-02-28T12:40:14;10.60;;;5.15;;
48853;SDS011;34673;52.808;17.856;2023-02-28T12:42:46;12.40;;;5.82;;
48853;SDS011;34673;52.808;17.856;2023-02-28T12:45:39;12.02;;;5.40;;
48853;SDS011;34673;52.808;17.856;2023-02-28T12:48:35;11.95;;;5.00;;
48853;SDS011;34673;52.808;17.856;2023-02-28T12:51:07;13.23;;;5.75;;
48853;SDS011;34673;52.808;17.856;2023-02-28T12:56:18;12.48;;;5.68;;
48853;SDS011;34673;52.808;17.856;2023-02-28T12:58:56;11.40;;;5.30;;
48853;SDS011;34673;52.808;17.856;2023-02-28T13:01:31;10.55;;;4.90;;
48853;SDS011;34673;52.808;17.856;2023-02-28T13:04:12;10.90;;;5.55;;
48853;SDS011;34673;52.808;17.856;2023-02-28T13:09:54;11.60;;;5.50;;
48853;SDS011;34673;52.808;17.856;2023-02-28T13:12:24;11.82;;;5.35;;
48853;SDS011;34673;52.808;17.856;2023-02-28T13:15:02;10.48;;;5.07;;
48853;SDS011;34673;52.808;17.856;2023-02-28T13:17:31;10.50;;;5.32;;
48853;SDS011;34673;52.808;17.856;2023-02-28T13:19:59;11.90;;;5.90;;
48853;SDS011;34673;52.808;17.856;2023-02-28T13:22:43;12.68;;;5.72;;
48853;SDS011;34673;52.808;17.856;2023-02-28T13:28:01;11.30;;;5.30;;
48853;SDS011;34673;52.808;17.856;2023-02-28T13:33:34;12.57;;;5.50;;
48853;SDS011;34673;52.808;17.856;2023-02-28T13:38:38;14.85;;;6.32;;
48853;SDS011;34673;52.808;17.856;2023-02-28T13:49:19;11.30;;;5.65;;
48853;SDS011;34673;52.808;17.856;2023-02-28T13:51:53;12.75;;;5.72;;
48853;SDS011;34673;52.808;17.856;2023-02-28T14:06:24;11.13;;;5.30;;
48853;SDS011;34673;52.808;17.856;2023-02-28T14:11:47;11.48;;;5.20;;
48853;SDS011;34673;52.808;17.856;2023-02-28T14:17:03;12.77;;;5.07;;
48853;SDS011;34673;52.808;17.856;2023-02-28T14:19:34;15.73;;;4.78;;
48853;SDS011;34673;52.808;17.856;2023-02-28T14:25:17;10.70;;;5.07;;
48853;SDS011;34673;52.808;17.856;2023-02-28T14:28:03;12.20;;;5.85;;
48853;SDS011;34673;52.808;17.856;2023-02-28T14:36:40;17.63;;;7.10;;
48853;SDS011;34673;52.808;17.856;2023-02-28T14:39:13;15.90;;;7.32;;
48853;SDS011;34673;52.808;17.856;2023-02-28T14:41:43;13.50;;;5.90;;
48853;SDS011;34673;52.808;17.856;2023-02-28T14:46:50;15.13;;;6.53;;
48853;SDS011;34673;52.808;17.856;2023-02-28T14:49:26;14.35;;;6.38;;
48853;SDS011;34673;52.808;17.856;2023-02-28T14:54:55;17.30;;;7.63;;
48853;SDS011;34673;52.808;17.856;2023-02-28T15:05:27;17.00;;;6.82;;
48853;SDS011;34673;52.808;17.856;2023-02-28T15:08:09;16.33;;;7.35;;
48853;SDS011;34673;52.808;17.856;2023-02-28T15:11:02;14.13;;;6.70;;
48853;SDS011;34673;52.808;17.856;2023-02-28T15:13:53;14.32;;;6.65;;
48853;SDS011;34673;52.808;17.856;2023-02-28T15:16:25;15.45;;;6.95;;
48853;SDS011;34673;52.808;17.856;2023-02-28T15:19:02;16.85;;;6.00;;
48853;SDS011;34673;52.808;17.856;2023-02-28T15:21:41;14.02;;;5.55;;
48853;SDS011;34673;52.808;17.856;2023-02-28T15:26:53;13.00;;;5.75;;
48853;SDS011;34673;52.808;17.856;2023-02-28T15:29:25;12.35;;;5.85;;
48853;SDS011;34673;52.808;17.856;2023-02-28T15:32:02;15.30;;;5.47;;
48853;SDS011;34673;52.808;17.856;2023-02-28T15:34:36;13.30;;;5.88;;
48853;SDS011;34673;52.808;17.856;2023-02-28T15:37:52;10.70;;;5.35;;
48853;SDS011;34673;52.808;17.856;2023-02-28T15:43:17;13.63;;;5.63;;
48853;SDS011;34673;52.808;17.856;2023-02-28T15:45:54;12.10;;;5.70;;
48853;SDS011;34673;52.808;17.856;2023-02-28T15:48:28;14.02;;;5.55;;
48853;SDS011;34673;52.808;17.856;2023-02-28T15:51:17;12.95;;;5.63;;
48853;SDS011;34673;52.808;17.856;2023-02-28T15:59:05;18.27;;;9.05;;
48853;SDS011;34673;52.808;17.856;2023-02-28T16:04:06;11.50;;;5.40;;
48853;SDS011;34673;52.808;17.856;2023-02-28T16:06:41;12.45;;;5.40;;
48853;SDS011;34673;52.808;17.856;2023-02-28T16:09:10;11.85;;;5.05;;
48853;SDS011;34673;52.808;17.856;2023-02-28T16:11:44;12.50;;;5.45;;
48853;SDS011;34673;52.808;17.856;2023-02-28T16:14:21;10.85;;;5.03;;
48853;SDS011;34673;52.808;17.856;2023-02-28T16:16:51;11.95;;;5.80;;
48853;SDS011;34673;52.808;17.856;2023-02-28T16:21:47;12.25;;;4.75;;
48853;SDS011;34673;52.808;17.856;2023-02-28T16:24:15;12.90;;;5.60;;
48853;SDS011;34673;52.808;17.856;2023-02-28T16:26:44;11.10;;;4.88;;
48853;SDS011;34673;52.808;17.856;2023-02-28T16:29:17;10.98;;;5.03;;
48853;SDS011;34673;52.808;17.856;2023-02-28T16:31:50;10.85;;;4.90;;
48853;SDS011;34673;52.808;17.856;2023-02-28T16:34:17;14.43;;;6.22;;
48853;SDS011;34673;52.808;17.856;2023-02-28T16:36:47;13.07;;;5.68;;
48853;SDS011;34673;52.808;17.856;2023-02-28T16:39:15;13.82;;;5.80;;
48853;SDS011;34673;52.808;17.856;2023-02-28T16:41:43;13.25;;;6.03;;
48853;SDS011;34673;52.808;17.856;2023-02-28T16:44:21;12.98;;;5.78;;
48853;SDS011;34673;52.808;17.856;2023-02-28T16:46:50;13.05;;;5.90;;
48853;SDS011;34673;52.808;17.856;2023-02-28T16:49:17;17.00;;;5.82;;
48853;SDS011;34673;52.808;17.856;2023-02-28T16:51:45;13.63;;;5.65;;
48853;SDS011;34673;52.808;17.856;2023-02-28T16:54:12;12.77;;;5.03;;
48853;SDS011;34673;52.808;17.856;2023-02-28T16:56:40;10.02;;;4.95;;
48853;SDS011;34673;52.808;17.856;2023-02-28T16:59:11;10.82;;;5.20;;
48853;SDS011;34673;52.808;17.856;2023-02-28T17:01:40;13.68;;;5.55;;
48853;SDS011;34673;52.808;17.856;2023-02-28T17:04:08;11.60;;;5.53;;
48853;SDS011;34673;52.808;17.856;2023-02-28T17:06:37;14.45;;;5.65;;
48853;SDS011;34673;52.808;17.856;2023-02-28T17:09:04;11.90;;;5.63;;
48853;SDS011;34673;52.808;17.856;2023-02-28T17:11:32;15.70;;;6.18;;
48853;SDS011;34673;52.808;17.856;2023-02-28T17:13:59;13.15;;;5.70;;
48853;SDS011;34673;52.808;17.856;2023-02-28T17:16:29;17.05;;;6.65;;
48853;SDS011;34673;52.808;17.856;2023-02-28T17:19:00;14.07;;;5.88;;